Time;durP1;ratioP1;P1;durP2;ratioP2;P2;SDS_P1;SDS_P2;PMS_P1;PMS_P2;Temp;Humidity;BMP_temperature;BMP_pressure;BME280_temperature;BME280_humidity;BME280_pressure;Samples;Min_cycle;Max_cycle;Signal;HPM_P1;HPM_P2
2022/07/04 00:00:48;;;;;;;1.83;1.30;;;;;;;;;;4923808;29;20038;-60
2022/07/04 00:03:15;;;;;;;5.35;1.40;;;;;;;;;;4922133;29;20386;-60
2022/07/04 00:05:41;;;;;;;3.92;1.40;;;;;;;;;;4932451;29;20027;-59
2022/07/04 00:08:07;;;;;;;2.20;1.58;;;;;;;;;;4932680;29;20023;-60
2022/07/04 00:10:34;;;;;;;4.57;1.50;;;;;;;;;;4934142;29;20020;-59
2022/07/04 00:13:00;;;;;;;9.70;1.60;;;;;;;;;;4919897;29;20032;-60
2022/07/04 00:15:26;;;;;;;3.00;1.48;;;;;;;;;;4935791;29;20030;-60
2022/07/04 00:17:52;;;;;;;2.53;1.38;;;;;;;;;;4933006;28;20417;-60
2022/07/04 00:20:19;;;;;;;6.45;1.70;;;;;;;;;;4926988;29;20462;-59
2022/07/04 00:22:46;;;;;;;3.25;1.23;;;;;;;;;;4925887;29;20497;-60
2022/07/04 00:25:12;;;;;;;5.10;1.42;;;;;;;;;;4925981;29;20038;-59
2022/07/04 00:27:38;;;;;;;3.05;1.33;;;;;;;;;;4922527;29;20066;-59
2022/07/04 00:30:05;;;;;;;2.38;1.23;;;;;;;;;;4921359;29;20063;-59
2022/07/04 00:32:31;;;;;;;3.60;1.30;;;;;;;;;;4932443;29;20035;-60
2022/07/04 00:34:58;;;;;;;1.92;1.20;;;;;;;;;;4929765;29;20024;-59
2022/07/04 00:37:24;;;;;;;2.83;1.20;;;;;;;;;;4925846;29;20036;-59
2022/07/04 00:39:50;;;;;;;3.55;1.35;;;;;;;;;;4923437;29;20032;-59
2022/07/04 00:42:17;;;;;;;7.10;1.30;;;;;;;;;;4920975;29;20032;-60
2022/07/04 00:44:43;;;;;;;6.82;1.38;;;;;;;;;;4923990;29;20509;-60
2022/07/04 00:47:10;;;;;;;6.28;1.75;;;;;;;;;;4925487;29;20055;-59
2022/07/04 00:49:36;;;;;;;2.67;1.23;;;;;;;;;;4925040;29;20020;-60
2022/07/04 00:52:03;;;;;;;3.78;1.10;;;;;;;;;;4936317;29;20024;-60
2022/07/04 00:54:31;;;;;;;4.85;1.10;;;;;;;;;;4919910;29;20039;-59
2022/07/04 00:56:57;;;;;;;8.98;1.50;;;;;;;;;;4922640;29;20032;-60
2022/07/04 00:59:24;;;;;;;4.68;1.42;;;;;;;;;;4925623;29;20095;-60
2022/07/04 01:01:50;;;;;;;6.10;1.60;;;;;;;;;;4925701;29;20027;-60
2022/07/04 01:04:17;;;;;;;2.78;1.50;;;;;;;;;;4925282;29;20035;-60
2022/07/04 01:06:44;;;;;;;6.07;1.48;;;;;;;;;;4922071;29;20401;-60
2022/07/04 01:09:11;;;;;;;6.00;1.42;;;;;;;;;;4921050;29;20030;-60
2022/07/04 01:11:37;;;;;;;4.07;1.38;;;;;;;;;;4932117;29;20050;-60
2022/07/04 01:14:06;;;;;;;7.15;1.48;;;;;;;;;;4928672;29;20034;-60
2022/07/04 01:16:33;;;;;;;4.38;1.10;;;;;;;;;;4925224;29;20036;-60
2022/07/04 01:18:59;;;;;;;5.00;1.50;;;;;;;;;;4924111;29;20448;-60
2022/07/04 01:21:25;;;;;;;4.75;1.60;;;;;;;;;;4920632;29;20042;-59
2022/07/04 01:23:52;;;;;;;4.97;1.20;;;;;;;;;;4922746;29;20039;-59
2022/07/04 01:26:18;;;;;;;7.28;1.67;;;;;;;;;;4925169;29;20051;-60
2022/07/04 01:28:45;;;;;;;3.05;1.40;;;;;;;;;;4926131;29;20034;-59
2022/07/04 01:31:11;;;;;;;2.42;1.20;;;;;;;;;;4935081;29;20363;-59
2022/07/04 01:33:37;;;;;;;3.35;1.38;;;;;;;;;;4921281;29;20512;-60
2022/07/04 01:36:04;;;;;;;2.53;1.30;;;;;;;;;;4921044;29;20036;-60
2022/07/04 01:38:30;;;;;;;4.95;1.20;;;;;;;;;;4924966;29;20040;-60
2022/07/04 01:40:56;;;;;;;4.55;1.58;;;;;;;;;;4924242;29;20032;-60
2022/07/04 01:43:23;;;;;;;3.03;1.77;;;;;;;;;;4924888;29;20023;-59
2022/07/04 01:45:49;;;;;;;6.20;1.38;;;;;;;;;;4922163;29;20404;-59
2022/07/04 01:48:15;;;;;;;8.52;1.50;;;;;;;;;;4920656;29;20032;-60
2022/07/04 01:50:42;;;;;;;3.42;1.63;;;;;;;;;;4923357;29;20377;-60
2022/07/04 01:53:08;;;;;;;6.32;1.60;;;;;;;;;;4924315;29;20028;-59
2022/07/04 01:55:34;;;;;;;3.70;1.42;;;;;;;;;;4920781;29;20030;-59
2022/07/04 01:58:01;;;;;;;3.15;1.60;;;;;;;;;;4932149;29;20035;-60
2022/07/04 02:03:12;;;;;;;5.18;1.45;;;;;;;;;;4935385;29;20032;-59
2022/07/04 02:05:39;;;;;;;4.30;1.17;;;;;;;;;;4923583;29;20036;-59
2022/07/04 02:08:05;;;;;;;4.20;1.40;;;;;;;;;;4927598;29;20019;-60
2022/07/04 02:10:32;;;;;;;3.40;1.52;;;;;;;;;;4931277;29;20450;-60
2022/07/04 02:13:01;;;;;;;2.92;1.60;;;;;;;;;;4922945;29;20027;-59
2022/07/04 02:15:31;;;;;;;7.22;1.58;;;;;;;;;;4919616;29;20030;-60
2022/07/04 02:17:58;;;;;;;4.43;1.50;;;;;;;;;;4920538;29;20056;-60
2022/07/04 02:20:24;;;;;;;4.68;1.40;;;;;;;;;;4924045;29;20051;-60
2022/07/04 02:22:51;;;;;;;5.10;1.50;;;;;;;;;;4924287;29;20031;-60
2022/07/04 02:25:18;;;;;;;4.95;1.40;;;;;;;;;;4918551;29;20040;-59
2022/07/04 02:27:44;;;;;;;3.00;1.50;;;;;;;;;;4934305;29;20501;-59
2022/07/04 02:30:11;;;;;;;3.10;1.50;;;;;;;;;;4932395;29;20030;-60
2022/07/04 02:32:37;;;;;;;5.47;1.60;;;;;;;;;;4931353;29;20082;-60
2022/07/04 02:35:04;;;;;;;1.58;1.02;;;;;;;;;;4927588;29;20025;-60
2022/07/04 02:37:30;;;;;;;2.28;1.77;;;;;;;;;;4924050;29;20024;-59
2022/07/04 02:39:57;;;;;;;4.70;1.83;;;;;;;;;;4922278;29;20040;-59
2022/07/04 02:42:23;;;;;;;3.72;1.50;;;;;;;;;;4919378;29;20043;-59
2022/07/04 02:44:50;;;;;;;5.35;1.70;;;;;;;;;;4921879;29;20032;-60
2022/07/04 02:47:16;;;;;;;5.82;1.55;;;;;;;;;;4929017;29;20020;-59
2022/07/04 02:49:43;;;;;;;2.75;1.60;;;;;;;;;;4930294;29;20083;-59
2022/07/04 02:52:09;;;;;;;1.60;1.33;;;;;;;;;;4923885;29;20016;-59
2022/07/04 02:54:35;;;;;;;4.85;1.70;;;;;;;;;;4919667;29;20016;-60
2022/07/04 02:57:02;;;;;;;4.25;1.63;;;;;;;;;;4931468;29;20030;-59
2022/07/04 02:59:28;;;;;;;11.40;1.92;;;;;;;;;;4924002;29;20040;-60
2022/07/04 03:01:54;;;;;;;3.45;1.60;;;;;;;;;;4923932;29;20038;-60
2022/07/04 03:04:20;;;;;;;6.85;1.67;;;;;;;;;;4923496;29;20027;-60
2022/07/04 03:06:47;;;;;;;3.65;1.70;;;;;;;;;;4920738;29;20027;-60
2022/07/04 03:09:13;;;;;;;3.30;1.33;;;;;;;;;;4917520;29;20028;-60
2022/07/04 03:11:40;;;;;;;3.83;1.48;;;;;;;;;;4922638;29;20028;-59
2022/07/04 03:14:06;;;;;;;2.90;1.55;;;;;;;;;;4923532;29;20016;-59
2022/07/04 03:16:32;;;;;;;4.90;1.75;;;;;;;;;;4923185;29;20532;-60
2022/07/04 03:18:58;;;;;;;5.75;1.75;;;;;;;;;;4919708;29;20026;-59
2022/07/04 03:21:25;;;;;;;3.65;1.60;;;;;;;;;;4918688;29;20024;-60
2022/07/04 03:23:57;;;;;;;3.30;1.70;;;;;;;;;;4920813;29;20032;-59
2022/07/04 03:26:32;;;;;;;4.05;1.42;;;;;;;;;;4929293;29;20034;-59
2022/07/04 03:28:59;;;;;;;3.83;1.50;;;;;;;;;;4928835;29;20025;-59
2022/07/04 03:31:26;;;;;;;6.35;1.85;;;;;;;;;;4926876;29;20028;-60
2022/07/04 03:33:53;;;;;;;7.55;1.80;;;;;;;;;;4922855;29;20441;-60
2022/07/04 03:36:19;;;;;;;6.28;1.98;;;;;;;;;;4935633;29;20507;-59
2022/07/04 03:38:46;;;;;;;6.05;1.80;;;;;;;;;;4925909;29;20032;-60
2022/07/04 03:41:12;;;;;;;4.32;1.80;;;;;;;;;;4927039;29;20026;-58
2022/07/04 03:43:39;;;;;;;6.05;1.67;;;;;;;;;;4926938;29;20029;-60
2022/07/04 03:46:05;;;;;;;3.22;1.50;;;;;;;;;;4926339;29;20511;-59
2022/07/04 03:48:31;;;;;;;4.25;1.85;;;;;;;;;;4921962;29;20023;-60
2022/07/04 03:50:58;;;;;;;5.80;1.80;;;;;;;;;;4923239;29;20391;-59
2022/07/04 03:53:24;;;;;;;3.70;1.75;;;;;;;;;;4926543;29;20031;-59
2022/07/04 03:55:51;;;;;;;6.65;1.90;;;;;;;;;;4926304;29;20461;-59
2022/07/04 03:58:17;;;;;;;6.47;1.70;;;;;;;;;;4926567;29;20027;-60
2022/07/04 04:00:43;;;;;;;8.05;1.65;;;;;;;;;;4923199;29;20035;-59
2022/07/04 04:05:55;;;;;;;6.28;1.73;;;;;;;;;;4933194;29;20031;-59
2022/07/04 04:08:22;;;;;;;4.20;1.83;;;;;;;;;;4927194;29;20028;-59
2022/07/04 04:10:50;;;;;;;10.65;1.85;;;;;;;;;;4926552;29;20021;-59
2022/07/04 04:13:16;;;;;;;3.30;1.80;;;;;;;;;;4926357;29;20043;-59
2022/07/04 04:15:43;;;;;;;1.88;1.48;;;;;;;;;;4923104;29;20700;-59
2022/07/04 04:18:09;;;;;;;7.15;1.90;;;;;;;;;;4922064;29;20054;-59
2022/07/04 04:20:35;;;;;;;6.07;1.92;;;;;;;;;;4925674;29;20036;-60
2022/07/04 04:23:02;;;;;;;2.80;1.70;;;;;;;;;;4926122;29;20401;-59
2022/07/04 04:25:28;;;;;;;6.70;1.95;;;;;;;;;;4926190;29;20036;-59
2022/07/04 04:27:54;;;;;;;6.05;1.63;;;;;;;;;;4924483;29;20028;-60
2022/07/04 04:30:21;;;;;;;2.33;1.40;;;;;;;;;;4921411;29;20381;-60
2022/07/04 04:32:47;;;;;;;3.83;1.63;;;;;;;;;;4924454;29;20028;-59
2022/07/04 04:35:13;;;;;;;4.28;1.70;;;;;;;;;;4925314;29;20036;-60
2022/07/04 04:37:40;;;;;;;2.78;1.55;;;;;;;;;;4925865;29;20018;-58
2022/07/04 04:40:06;;;;;;;5.18;1.50;;;;;;;;;;4925129;29;20039;-59
2022/07/04 04:42:33;;;;;;;3.63;1.75;;;;;;;;;;4921287;29;20528;-60
2022/07/04 04:44:59;;;;;;;3.97;1.70;;;;;;;;;;4932829;29;20036;-60
2022/07/04 04:47:26;;;;;;;5.97;1.70;;;;;;;;;;4926198;29;20024;-59
2022/07/04 04:49:52;;;;;;;4.57;1.73;;;;;;;;;;4925350;29;20042;-59
2022/07/04 04:52:18;;;;;;;4.07;1.92;;;;;;;;;;4925344;29;20036;-59
2022/07/04 04:54:45;;;;;;;2.92;1.52;;;;;;;;;;4922509;29;20400;-59
2022/07/04 04:57:11;;;;;;;4.63;1.70;;;;;;;;;;4921038;29;20405;-59
2022/07/04 04:59:37;;;;;;;7.10;2.03;;;;;;;;;;4924800;29;20046;-59
2022/07/04 05:02:04;;;;;;;5.07;1.90;;;;;;;;;;4925361;29;20032;-60
2022/07/04 05:04:30;;;;;;;3.28;1.80;;;;;;;;;;4924984;29;20028;-59
2022/07/04 05:06:57;;;;;;;4.93;1.88;;;;;;;;;;4923807;29;21449;-59
2022/07/04 05:09:23;;;;;;;10.43;2.10;;;;;;;;;;4919967;29;20039;-59
2022/07/04 05:11:49;;;;;;;6.07;2.22;;;;;;;;;;4923237;29;20490;-59
2022/07/04 05:14:16;;;;;;;7.53;2.50;;;;;;;;;;4925086;29;20128;-59
2022/07/04 05:16:43;;;;;;;7.68;2.70;;;;;;;;;;4924789;29;20048;-60
2022/07/04 05:19:09;;;;;;;7.45;2.60;;;;;;;;;;4924519;29;20022;-59
2022/07/04 05:21:35;;;;;;;5.85;1.98;;;;;;;;;;4920720;29;20035;-60
2022/07/04 05:24:02;;;;;;;6.68;2.17;;;;;;;;;;4932518;29;20511;-59
2022/07/04 05:26:28;;;;;;;5.15;2.15;;;;;;;;;;4930518;29;20044;-60
2022/07/04 05:28:55;;;;;;;5.53;2.40;;;;;;;;;;4929697;29;20020;-60
2022/07/04 05:31:24;;;;;;;5.97;2.33;;;;;;;;;;4925082;29;20040;-60
2022/07/04 05:33:52;;;;;;;6.20;2.15;;;;;;;;;;4922234;29;20019;-59
2022/07/04 05:36:19;;;;;;;6.95;2.28;;;;;;;;;;4920520;29;20032;-59
2022/07/04 05:38:45;;;;;;;5.13;1.90;;;;;;;;;;4923645;29;20334;-59
2022/07/04 05:41:12;;;;;;;5.28;2.25;;;;;;;;;;4924682;29;20083;-59
2022/07/04 05:43:38;;;;;;;10.25;2.33;;;;;;;;;;4924591;29;20032;-59
2022/07/04 05:46:04;;;;;;;8.07;2.47;;;;;;;;;;4924224;29;20028;-59
2022/07/04 05:48:30;;;;;;;3.75;2.15;;;;;;;;;;4920034;29;20027;-59
2022/07/04 05:50:57;;;;;;;3.47;1.90;;;;;;;;;;4921646;29;20512;-59
2022/07/04 05:53:23;;;;;;;4.60;1.98;;;;;;;;;;4923485;29;20028;-60
2022/07/04 05:55:49;;;;;;;6.55;2.28;;;;;;;;;;4924346;29;20512;-59
2022/07/04 05:58:16;;;;;;;12.00;2.45;;;;;;;;;;4924054;29;20523;-60
2022/07/04 06:00:42;;;;;;;4.80;2.38;;;;;;;;;;4919828;29;20035;-60
2022/07/04 06:03:08;;;;;;;3.03;2.20;;;;;;;;;;4931848;29;20019;-59
2022/07/04 06:05:35;;;;;;;4.15;2.13;;;;;;;;;;4923942;29;20028;-59
2022/07/04 06:08:01;;;;;;;5.03;2.65;;;;;;;;;;4924024;29;20051;-59
2022/07/04 06:10:28;;;;;;;7.63;2.30;;;;;;;;;;4923828;29;20075;-60
2022/07/04 06:12:54;;;;;;;5.00;2.33;;;;;;;;;;4923961;29;20034;-60
2022/07/04 06:15:21;;;;;;;8.25;2.88;;;;;;;;;;4928068;29;20523;-59
2022/07/04 06:17:47;;;;;;;6.88;2.70;;;;;;;;;;4931855;29;20051;-63
2022/07/04 06:20:13;;;;;;;8.07;2.50;;;;;;;;;;4928220;29;20040;-61
2022/07/04 06:22:41;;;;;;;5.00;2.70;;;;;;;;;;4928652;29;20628;-61
2022/07/04 06:25:10;;;;;;;4.97;2.30;;;;;;;;;;4923362;29;20043;-61
2022/07/04 06:27:37;;;;;;;4.53;2.10;;;;;;;;;;4933128;29;20412;-61
2022/07/04 06:30:04;;;;;;;7.97;2.10;;;;;;;;;;4931536;29;20048;-61
2022/07/04 06:32:31;;;;;;;7.15;1.90;;;;;;;;;;4925896;29;20061;-61
2022/07/04 06:37:42;;;;;;;2.92;2.05;;;;;;;;;;4932328;29;20020;-60
2022/07/04 06:40:08;;;;;;;3.83;1.90;;;;;;;;;;4930351;29;20035;-60
2022/07/04 06:42:35;;;;;;;6.40;2.20;;;;;;;;;;4927566;29;20508;-61
2022/07/04 06:45:01;;;;;;;3.17;1.90;;;;;;;;;;4919273;29;20032;-60
2022/07/04 06:47:27;;;;;;;4.25;1.98;;;;;;;;;;4922932;29;20032;-61
2022/07/04 06:49:53;;;;;;;5.47;1.50;;;;;;;;;;4922275;29;20032;-61
2022/07/04 06:52:20;;;;;;;4.97;1.92;;;;;;;;;;4931353;29;20032;-60
2022/07/04 06:54:46;;;;;;;2.83;1.48;;;;;;;;;;4918624;29;20039;-60
2022/07/04 06:57:13;;;;;;;2.83;1.70;;;;;;;;;;4926572;29;20020;-59
2022/07/04 06:59:40;;;;;;;12.20;1.65;;;;;;;;;;4922453;29;20040;-61
2022/07/04 07:02:06;;;;;;;5.70;1.90;;;;;;;;;;4923599;29;20027;-60
2022/07/04 07:04:33;;;;;;;5.68;1.77;;;;;;;;;;4920074;29;20024;-61
2022/07/04 07:06:59;;;;;;;5.70;1.98;;;;;;;;;;4921333;29;20054;-61
2022/07/04 07:09:26;;;;;;;6.85;1.85;;;;;;;;;;4935203;29;20050;-60
2022/07/04 07:11:52;;;;;;;4.60;2.15;;;;;;;;;;4923174;29;20028;-61
2022/07/04 07:14:18;;;;;;;4.38;1.92;;;;;;;;;;4928580;29;20416;-61
2022/07/04 07:16:44;;;;;;;5.30;1.70;;;;;;;;;;4921742;29;20036;-61
2022/07/04 07:19:11;;;;;;;2.83;1.70;;;;;;;;;;4946216;29;20032;-60
2022/07/04 07:21:37;;;;;;;6.15;1.90;;;;;;;;;;4923239;29;20497;-65
2022/07/04 07:24:03;;;;;;;4.38;1.80;;;;;;;;;;4931140;29;20043;-66
2022/07/04 07:26:30;;;;;;;6.05;1.80;;;;;;;;;;4925462;29;20098;-66
2022/07/04 07:28:56;;;;;;;4.85;2.25;;;;;;;;;;4925674;29;20028;-67
2022/07/04 07:31:23;;;;;;;12.00;2.53;;;;;;;;;;4925217;29;20042;-75
2022/07/04 07:33:49;;;;;;;5.47;2.00;;;;;;;;;;4923489;29;20026;-74
2022/07/04 07:36:15;;;;;;;3.58;1.70;;;;;;;;;;4920312;29;20038;-78
2022/07/04 07:38:42;;;;;;;6.63;2.00;;;;;;;;;;4924456;29;20043;-75
2022/07/04 07:41:09;;;;;;;5.15;2.00;;;;;;;;;;4924635;29;20501;-74
2022/07/04 07:43:36;;;;;;;7.32;2.10;;;;;;;;;;4924697;29;20469;-76
2022/07/04 07:46:04;;;;;;;5.43;1.80;;;;;;;;;;4921549;29;20028;-71
2022/07/04 07:48:30;;;;;;;2.45;1.58;;;;;;;;;;4919377;29;20040;-67
2022/07/04 07:50:56;;;;;;;4.22;1.83;;;;;;;;;;4921740;29;20032;-76
2022/07/04 07:53:23;;;;;;;5.40;2.25;;;;;;;;;;4925702;29;20038;-72
2022/07/04 07:55:49;;;;;;;4.55;1.80;;;;;;;;;;4925297;29;20017;-73
2022/07/04 07:58:16;;;;;;;4.78;1.80;;;;;;;;;;4921968;29;20141;-71
2022/07/04 08:00:42;;;;;;;4.43;1.75;;;;;;;;;;4934473;29;20412;-69
2022/07/04 08:05:53;;;;;;;3.70;1.83;;;;;;;;;;4936315;29;20024;-68
2022/07/04 08:08:22;;;;;;;8.18;1.80;;;;;;;;;;4927075;29;20095;-79
2022/07/04 08:10:48;;;;;;;6.07;1.83;;;;;;;;;;4925293;29;20416;-69
2022/07/04 08:13:14;;;;;;;4.88;1.52;;;;;;;;;;4925636;29;20032;-74
2022/07/04 08:15:41;;;;;;;3.63;1.80;;;;;;;;;;4918415;29;20438;-70
2022/07/04 08:18:07;;;;;;;6.95;2.00;;;;;;;;;;4920884;29;20048;-69
2022/07/04 08:20:33;;;;;;;3.80;1.70;;;;;;;;;;4924067;29;20048;-71
2022/07/04 08:23:00;;;;;;;3.95;1.75;;;;;;;;;;4925180;29;20024;-72
2022/07/04 08:25:26;;;;;;;3.95;1.50;;;;;;;;;;4925093;29;20034;-68
2022/07/04 08:27:52;;;;;;;6.85;1.73;;;;;;;;;;4922619;29;20016;-74
2022/07/04 08:30:19;;;;;;;5.22;1.70;;;;;;;;;;4934256;29;20032;-71
2022/07/04 08:32:46;;;;;;;4.60;1.73;;;;;;;;;;4923836;29;20040;-71
2022/07/04 08:35:12;;;;;;;4.10;1.60;;;;;;;;;;4925138;29;20027;-74
2022/07/04 08:37:40;;;;;;;6.05;1.70;;;;;;;;;;4924518;29;20035;-72
2022/07/04 08:40:07;;;;;;;4.43;1.92;;;;;;;;;;4934951;29;20028;-72
2022/07/04 08:42:38;;;;;;;6.97;2.03;;;;;;;;;;4935235;29;20016;-73
2022/07/04 08:45:05;;;;;;;5.03;1.52;;;;;;;;;;4932076;29;20424;-70
2022/07/04 08:47:33;;;;;;;3.20;1.70;;;;;;;;;;4924363;29;20016;-69
2022/07/04 08:50:10;;;;;;;2.35;1.77;;;;;;;;;;4923150;29;20046;-71
2022/07/04 08:52:40;;;;;;;3.28;1.67;;;;;;;;;;4924744;29;20036;-71
2022/07/04 09:00:38;;;;;;;6.93;1.58;;;;;;;;;;4934976;29;20042;-74
2022/07/04 09:03:05;;;;;;;6.65;1.83;;;;;;;;;;4931847;29;20030;-70
2022/07/04 09:05:32;;;;;;;6.50;1.67;;;;;;;;;;4930658;29;20485;-73
2022/07/04 09:07:59;;;;;;;4.70;1.60;;;;;;;;;;4926815;29;20075;-74
2022/07/04 09:10:26;;;;;;;7.05;1.55;;;;;;;;;;4922099;29;20035;-67
2022/07/04 09:12:52;;;;;;;4.72;1.98;;;;;;;;;;4934722;29;20489;-69
2022/07/04 09:15:19;;;;;;;5.82;1.60;;;;;;;;;;4919789;29;20034;-69
2022/07/04 09:17:46;;;;;;;3.38;1.70;;;;;;;;;;4922614;29;20052;-69
2022/07/04 09:20:19;;;;;;;4.85;1.98;;;;;;;;;;4923956;29;20502;-72
2022/07/04 09:22:47;;;;;;;3.90;1.80;;;;;;;;;;4923815;29;20505;-75
2022/07/04 09:25:17;;;;;;;6.63;1.67;;;;;;;;;;4923815;29;20489;-74
2022/07/04 09:27:45;;;;;;;8.38;1.85;;;;;;;;;;4920696;29;20034;-72
2022/07/04 09:30:12;;;;;;;5.57;1.90;;;;;;;;;;4930026;29;20042;-74
2022/07/04 09:32:40;;;;;;;5.07;1.77;;;;;;;;;;4929961;29;20044;-71
2022/07/04 09:35:10;;;;;;;5.10;1.80;;;;;;;;;;4929535;29;20035;-69
2022/07/04 09:37:47;;;;;;;4.53;1.73;;;;;;;;;;4930358;29;20498;-68
2022/07/04 09:40:25;;;;;;;4.82;1.80;;;;;;;;;;4926619;29;20043;-66
2022/07/04 09:42:52;;;;;;;7.88;2.13;;;;;;;;;;4921386;29;20024;-67
2022/07/04 09:45:21;;;;;;;9.70;1.88;;;;;;;;;;4929861;29;20027;-70
2022/07/04 09:47:49;;;;;;;7.97;2.00;;;;;;;;;;4922264;29;20034;-70
2022/07/04 09:50:16;;;;;;;4.60;1.60;;;;;;;;;;4923176;29;20489;-72
2022/07/04 09:52:49;;;;;;;3.08;1.70;;;;;;;;;;4923637;29;20036;-75
2022/07/04 09:55:25;;;;;;;2.83;1.80;;;;;;;;;;4919475;29;20020;-73
2022/07/04 09:57:52;;;;;;;4.68;1.80;;;;;;;;;;4921176;29;20504;-73
2022/07/04 10:00:18;;;;;;;3.70;1.88;;;;;;;;;;4928710;29;20054;-74
2022/07/04 10:02:45;;;;;;;3.92;1.88;;;;;;;;;;4922059;28;20036;-67
2022/07/04 10:05:11;;;;;;;6.25;1.92;;;;;;;;;;4923115;29;20512;-68
2022/07/04 10:07:44;;;;;;;2.47;1.70;;;;;;;;;;4923046;29;20125;-68
2022/07/04 10:10:30;;;;;;;5.18;2.25;;;;;;;;;;4923665;29;20027;-69
2022/07/04 10:13:02;;;;;;;4.57;1.73;;;;;;;;;;4921567;29;20496;-73
2022/07/04 10:15:29;;;;;;;5.30;1.90;;;;;;;;;;4918160;29;20019;-69
2022/07/04 10:17:55;;;;;;;2.60;1.95;;;;;;;;;;4920361;29;20052;-69
2022/07/04 10:20:21;;;;;;;4.43;2.00;;;;;;;;;;4925834;29;20051;-70
2022/07/04 10:22:48;;;;;;;8.35;2.20;;;;;;;;;;4929146;29;20024;-70
2022/07/04 10:25:14;;;;;;;2.80;1.90;;;;;;;;;;4932707;29;20383;-69
2022/07/04 10:27:41;;;;;;;5.32;1.90;;;;;;;;;;4919677;29;20072;-73
2022/07/04 10:30:09;;;;;;;6.85;2.10;;;;;;;;;;4918485;29;20036;-68
2022/07/04 10:32:36;;;;;;;4.82;1.90;;;;;;;;;;4922642;29;20038;-68
2022/07/04 10:35:03;;;;;;;3.38;1.95;;;;;;;;;;4926072;29;20038;-71
2022/07/04 10:38:08;;;;;;;3.65;1.98;;;;;;;;;;4929801;29;20032;-66
2022/07/04 10:40:46;;;;;;;3.15;2.00;;;;;;;;;;4937739;29;20045;-68
2022/07/04 10:46:14;;;;;;;6.97;2.28;;;;;;;;;;4946196;29;20050;-67
2022/07/04 10:48:51;;;;;;;3.33;1.77;;;;;;;;;;4934150;29;20019;-68
2022/07/04 10:51:32;;;;;;;3.03;2.05;;;;;;;;;;4949684;29;20043;-67
2022/07/04 10:53:59;;;;;;;8.75;2.15;;;;;;;;;;4951121;29;20031;-67
2022/07/04 10:56:26;;;;;;;6.63;2.13;;;;;;;;;;4944844;28;20031;-67
2022/07/04 10:58:52;;;;;;;6.15;1.90;;;;;;;;;;4947889;29;20029;-67
2022/07/04 11:01:19;;;;;;;3.28;1.77;;;;;;;;;;4945179;29;20043;-67
2022/07/04 11:03:48;;;;;;;4.63;2.00;;;;;;;;;;4948518;29;20020;-67
2022/07/04 11:06:33;;;;;;;5.07;1.98;;;;;;;;;;4950185;29;20127;-68
2022/07/04 11:09:11;;;;;;;3.20;1.95;;;;;;;;;;4946930;29;20039;-68
2022/07/04 11:11:57;;;;;;;5.57;2.22;;;;;;;;;;4935957;29;20052;-68
2022/07/04 11:14:35;;;;;;;7.25;2.00;;;;;;;;;;4924012;29;20509;-67
2022/07/04 11:17:02;;;;;;;9.93;1.90;;;;;;;;;;4922820;29;20044;-68
2022/07/04 11:19:28;;;;;;;2.75;1.90;;;;;;;;;;4922727;29;20024;-68
2022/07/04 11:21:55;;;;;;;3.40;1.75;;;;;;;;;;4920705;29;20046;-67
2022/07/04 11:24:22;;;;;;;5.45;2.28;;;;;;;;;;4918615;29;20032;-67
2022/07/04 11:26:49;;;;;;;2.85;1.98;;;;;;;;;;4921165;29;20032;-68
2022/07/04 11:29:15;;;;;;;4.40;2.10;;;;;;;;;;4922976;29;20020;-68
2022/07/04 11:31:42;;;;;;;4.88;2.25;;;;;;;;;;4920423;29;20028;-67
2022/07/04 11:34:09;;;;;;;2.92;2.20;;;;;;;;;;4929346;29;20036;-67
2022/07/04 11:36:38;;;;;;;3.95;2.30;;;;;;;;;;4918320;29;20015;-68
2022/07/04 11:39:05;;;;;;;3.13;2.20;;;;;;;;;;4930056;29;20035;-67
2022/07/04 11:47:06;;;;;;;3.63;2.30;;;;;;;;;;4922618;29;20031;-67
2022/07/04 11:49:33;;;;;;;2.85;2.38;;;;;;;;;;4919733;29;20026;-67
2022/07/04 11:51:59;;;;;;;6.10;2.60;;;;;;;;;;4932538;29;20036;-67
2022/07/04 11:54:26;;;;;;;5.88;3.20;;;;;;;;;;4931382;29;20111;-75
2022/07/04 11:56:52;;;;;;;4.00;2.80;;;;;;;;;;4930325;29;20404;-68
2022/07/04 11:59:19;;;;;;;6.15;2.65;;;;;;;;;;4928695;29;20038;-69
2022/07/04 12:01:45;;;;;;;5.90;2.65;;;;;;;;;;4925997;29;20036;-70
2022/07/04 12:04:16;;;;;;;6.07;2.95;;;;;;;;;;4924089;29;20420;-71
2022/07/04 12:06:43;;;;;;;8.30;2.95;;;;;;;;;;4935675;29;20501;-75
2022/07/04 12:09:09;;;;;;;4.78;3.03;;;;;;;;;;4928374;29;20038;-74
2022/07/04 12:11:55;;;;;;;4.75;2.72;;;;;;;;;;4929080;29;20031;-66
2022/07/04 15:09:24;;;;;;;3.65;1.30;;;;;;;;;;5106942;27;20392;-71
2022/07/04 15:11:51;;;;;;;2.97;1.40;;;;;;;;;;5090601;28;20489;-70
2022/07/04 15:14:18;;;;;;;3.85;1.20;;;;;;;;;;5090565;28;20031;-68
2022/07/04 15:16:44;;;;;;;2.88;1.40;;;;;;;;;;5089834;28;20034;-68
2022/07/04 15:19:12;;;;;;;5.20;1.70;;;;;;;;;;5090814;28;20493;-68
2022/07/04 15:24:24;;;;;;;4.93;1.55;;;;;;;;;;5089343;28;20034;-68
2022/07/04 15:26:51;;;;;;;7.90;1.75;;;;;;;;;;5088467;28;20028;-68
2022/07/04 15:29:19;;;;;;;6.90;1.30;;;;;;;;;;5085860;28;20507;-68
2022/07/04 15:31:46;;;;;;;10.20;1.50;;;;;;;;;;5089619;28;20422;-68
2022/07/04 15:34:13;;;;;;;3.33;1.50;;;;;;;;;;5089206;28;20037;-68
2022/07/04 15:36:39;;;;;;;3.10;1.40;;;;;;;;;;5089420;28;20016;-68
2022/07/04 15:39:07;;;;;;;4.57;1.20;;;;;;;;;;5088966;28;20031;-68
2022/07/04 15:41:33;;;;;;;2.72;1.20;;;;;;;;;;5086433;28;20028;-68
2022/07/04 15:43:59;;;;;;;6.95;1.75;;;;;;;;;;5089517;28;20020;-68
2022/07/04 15:46:26;;;;;;;6.93;1.58;;;;;;;;;;5089078;28;20036;-68
2022/07/04 15:48:52;;;;;;;5.22;1.23;;;;;;;;;;5088837;28;20038;-68
2022/07/04 15:51:18;;;;;;;4.28;1.30;;;;;;;;;;5088816;28;20017;-68
2022/07/04 15:53:45;;;;;;;6.68;1.40;;;;;;;;;;5104012;28;20065;-68
2022/07/04 15:56:12;;;;;;;3.72;1.42;;;;;;;;;;5088586;28;20531;-68
2022/07/04 15:58:38;;;;;;;4.38;1.40;;;;;;;;;;5088885;28;20028;-68
2022/07/04 16:01:05;;;;;;;6.13;1.58;;;;;;;;;;5088871;28;20028;-68
2022/07/04 16:03:31;;;;;;;5.38;1.60;;;;;;;;;;5088795;28;20085;-68
2022/07/04 16:05:58;;;;;;;9.00;1.50;;;;;;;;;;5088108;28;20491;-68
2022/07/04 16:08:24;;;;;;;2.35;1.10;;;;;;;;;;5088103;28;20096;-68
2022/07/04 16:10:50;;;;;;;3.80;1.33;;;;;;;;;;5088272;28;20415;-68
2022/07/04 16:13:17;;;;;;;6.80;1.38;;;;;;;;;;5088649;28;20035;-67
2022/07/04 16:15:43;;;;;;;4.13;1.17;;;;;;;;;;5088424;28;20036;-68
2022/07/04 16:18:09;;;;;;;3.88;1.50;;;;;;;;;;5087358;28;20035;-68
2022/07/04 16:20:36;;;;;;;3.95;1.23;;;;;;;;;;5075100;28;20021;-68
2022/07/04 16:23:02;;;;;;;5.32;1.58;;;;;;;;;;5075018;28;20062;-68
2022/07/04 16:25:28;;;;;;;4.40;1.63;;;;;;;;;;5075279;28;20023;-68
2022/07/04 16:27:55;;;;;;;3.72;1.48;;;;;;;;;;5075191;28;20039;-69
2022/07/04 16:30:21;;;;;;;6.07;1.35;;;;;;;;;;5075084;28;20501;-68
2022/07/04 16:32:47;;;;;;;1.88;1.17;;;;;;;;;;5074089;28;20039;-68
2022/07/04 16:35:14;;;;;;;6.03;1.85;;;;;;;;;;5074965;28;20031;-68
2022/07/04 16:37:40;;;;;;;3.08;1.23;;;;;;;;;;5074958;28;20400;-68
2022/07/04 16:40:08;;;;;;;5.75;1.40;;;;;;;;;;5074531;28;20077;-68
2022/07/04 16:42:35;;;;;;;3.80;1.27;;;;;;;;;;5075279;28;20026;-68
2022/07/04 16:45:01;;;;;;;3.25;1.38;;;;;;;;;;5073960;28;20024;-68
2022/07/04 16:47:28;;;;;;;9.50;1.60;;;;;;;;;;5073433;28;20505;-68
2022/07/04 16:49:55;;;;;;;8.80;1.77;;;;;;;;;;5074841;28;20033;-68
2022/07/04 16:52:21;;;;;;;4.03;1.30;;;;;;;;;;5073402;28;20032;-68
2022/07/04 16:54:47;;;;;;;3.97;1.42;;;;;;;;;;5074322;28;20024;-68
2022/07/04 16:57:14;;;;;;;8.57;1.48;;;;;;;;;;5073891;28;20028;-68
2022/07/04 16:59:40;;;;;;;4.97;1.45;;;;;;;;;;5074616;28;20029;-68
2022/07/04 17:02:07;;;;;;;5.95;1.40;;;;;;;;;;5074496;28;20009;-68
2022/07/04 17:04:33;;;;;;;3.33;1.50;;;;;;;;;;5074349;28;20034;-68
2022/07/04 17:06:59;;;;;;;3.78;1.60;;;;;;;;;;5074386;28;20013;-67
2022/07/04 17:09:26;;;;;;;5.32;1.77;;;;;;;;;;5074231;28;20035;-68
2022/07/04 17:11:52;;;;;;;4.55;1.45;;;;;;;;;;5073538;28;20039;-68
2022/07/04 17:14:18;;;;;;;3.33;1.48;;;;;;;;;;5074321;28;20427;-68
2022/07/04 17:16:44;;;;;;;5.53;1.45;;;;;;;;;;5074240;28;20016;-68
2022/07/04 17:19:11;;;;;;;6.70;1.33;;;;;;;;;;5073957;28;20420;-68
2022/07/04 17:21:37;;;;;;;4.82;1.50;;;;;;;;;;5074306;28;20028;-68
2022/07/04 17:24:04;;;;;;;3.00;1.10;;;;;;;;;;5088585;28;20020;-68
2022/07/04 17:26:30;;;;;;;4.95;1.40;;;;;;;;;;5074558;28;20021;-68
2022/07/04 17:28:56;;;;;;;4.65;1.50;;;;;;;;;;5073799;28;20035;-68
2022/07/04 17:31:23;;;;;;;2.45;1.27;;;;;;;;;;5072977;28;20025;-68
2022/07/04 17:33:49;;;;;;;6.20;1.67;;;;;;;;;;5073915;28;20534;-68
2022/07/04 17:36:15;;;;;;;4.90;1.50;;;;;;;;;;5072711;28;20023;-68
2022/07/04 17:38:42;;;;;;;4.10;1.15;;;;;;;;;;5073406;28;20518;-68
2022/07/04 17:41:53;;;;;;;3.78;1.23;;;;;;;;;;5073880;28;20021;-68
2022/07/04 17:43:54;;;;;;;4.55;1.50;;;;;;;;;;5069731;28;20036;-68
2022/07/04 17:46:21;;;;;;;6.90;1.52;;;;;;;;;;5073529;28;20025;-68
2022/07/04 17:48:47;;;;;;;6.15;1.60;;;;;;;;;;5073367;28;20028;-68
2022/07/04 17:51:13;;;;;;;3.25;1.40;;;;;;;;;;5072824;28;20013;-68
2022/07/04 17:53:40;;;;;;;5.22;1.60;;;;;;;;;;5073229;28;20465;-68
2022/07/04 17:56:07;;;;;;;6.82;1.75;;;;;;;;;;5073733;28;20016;-68
2022/07/04 17:58:33;;;;;;;5.18;1.50;;;;;;;;;;5073443;28;20235;-68
2022/07/04 18:00:59;;;;;;;3.72;1.63;;;;;;;;;;5073786;28;20035;-68
2022/07/04 18:03:26;;;;;;;4.95;1.92;;;;;;;;;;5072069;28;20029;-68
2022/07/04 18:05:52;;;;;;;3.58;1.60;;;;;;;;;;5072821;28;20033;-68